createdAt,value
2018-06-22T00:05:09.192Z,15.54
2018-06-22T00:07:42.655Z,15.42
2018-06-22T00:10:15.236Z,15.24
2018-06-22T00:12:48.472Z,15.13
2018-06-22T00:15:20.418Z,15.09
2018-06-22T00:17:53.722Z,15.05
2018-06-22T00:20:25.401Z,14.84
2018-06-22T00:22:58.625Z,14.70
2018-06-22T00:25:31.855Z,14.59
2018-06-22T00:28:06.316Z,14.58
2018-06-22T00:33:14.223Z,14.43
2018-06-22T00:35:48.526Z,14.48
2018-06-22T00:38:19.844Z,14.31
2018-06-22T00:40:52.006Z,14.31
2018-06-22T00:43:23.591Z,14.15
2018-06-22T00:45:56.651Z,14.04
2018-06-22T00:48:29.723Z,14.00
2018-06-22T00:51:02.146Z,13.80
2018-06-22T00:56:11.595Z,13.66
2018-06-22T00:58:45.196Z,13.43
2018-06-22T01:01:18.004Z,13.34
2018-06-22T01:03:50.477Z,13.34
2018-06-22T01:06:23.465Z,13.32
2018-06-22T01:11:33.252Z,13.17
2018-06-22T01:14:06.128Z,13.07
2018-06-22T01:16:39.091Z,12.94
2018-06-22T01:19:11.403Z,12.80
2018-06-22T01:21:44.943Z,12.70
2018-06-22T01:24:18.901Z,12.56
2018-06-22T01:26:54.359Z,12.39
2018-06-22T01:29:28.070Z,12.28
2018-06-22T01:32:01.359Z,12.20
2018-06-22T01:34:36.084Z,12.18
2018-06-22T01:37:09.273Z,12.11
2018-06-22T01:39:38.702Z,12.09
2018-06-22T01:42:08.661Z,12.04
2018-06-22T01:44:37.734Z,12.06
2018-06-22T01:47:07.062Z,12.03
2018-06-22T01:49:36.154Z,11.99
2018-06-22T01:52:05.211Z,11.79
2018-06-22T01:54:34.268Z,11.72
2018-06-22T01:57:03.910Z,11.84
2018-06-22T01:59:32.969Z,11.67
2018-06-22T02:02:02.969Z,11.57
2018-06-22T02:04:32.262Z,11.45
2018-06-22T02:07:01.458Z,11.48
2018-06-22T02:09:30.492Z,11.45
2018-06-22T02:14:09.922Z,11.22
2018-06-22T02:16:38.974Z,11.30
2018-06-22T02:21:44.179Z,11.19
2018-06-22T02:24:13.209Z,11.17
2018-06-22T02:26:42.269Z,10.96
2018-06-22T02:29:11.681Z,10.87
2018-06-22T02:31:40.748Z,10.70
2018-06-22T02:34:09.900Z,10.53
2018-06-22T02:36:39.311Z,10.32
2018-06-22T02:39:08.376Z,10.26
2018-06-22T02:41:37.423Z,10.10
2018-06-22T02:44:06.461Z,9.95
2018-06-22T02:46:35.793Z,9.93
2018-06-22T02:49:04.838Z,9.96
2018-06-22T02:51:33.871Z,9.96
2018-06-22T02:59:18.708Z,9.99
2018-06-22T03:01:47.993Z,9.86
2018-06-22T03:04:17.037Z,9.69
2018-06-22T03:06:46.092Z,9.70
2018-06-22T03:09:15.352Z,9.45
2018-06-22T03:11:44.396Z,9.44
2018-06-22T03:14:13.445Z,9.44
2018-06-22T03:19:18.191Z,9.51
2018-06-22T03:21:47.227Z,9.46
2018-06-22T03:26:53.241Z,9.53
2018-06-22T03:29:23.305Z,9.36
2018-06-22T03:31:52.583Z,9.35
2018-06-22T03:34:21.615Z,9.28
2018-06-22T03:36:50.662Z,9.13
2018-06-22T03:39:20.841Z,9.00
2018-06-22T03:41:49.884Z,8.96
2018-06-22T03:44:18.940Z,8.86
2018-06-22T03:46:48.112Z,8.88
2018-06-22T03:49:18.342Z,8.93
2018-06-22T03:51:47.389Z,8.85
2018-06-22T03:54:16.437Z,8.84
2018-06-22T03:56:45.871Z,9.02
2018-06-22T04:01:50.791Z,9.23
2018-06-22T04:04:20.018Z,9.25
2018-06-22T04:06:49.033Z,9.30
2018-06-22T04:09:19.130Z,9.26
2018-06-22T04:14:28.252Z,9.25
2018-06-22T04:16:57.305Z,9.21
2018-06-22T04:22:02.123Z,9.32
2018-06-22T04:24:31.311Z,9.40
2018-06-22T04:27:00.450Z,9.53
2018-06-22T04:29:29.501Z,9.73
2018-06-22T04:31:58.544Z,9.70
2018-06-22T04:34:27.844Z,9.85
2018-06-22T04:36:56.943Z,9.85
2018-06-22T04:39:25.974Z,10.03
2018-06-22T04:41:55.026Z,9.95
2018-06-22T04:46:59.844Z,10.19
2018-06-22T04:49:29.442Z,10.23
2018-06-22T04:51:58.713Z,10.21
2018-06-22T04:54:27.769Z,10.18
2018-06-22T04:56:57.005Z,10.31
2018-06-22T04:59:27.070Z,10.48
2018-06-22T05:01:56.092Z,10.49
2018-06-22T05:04:25.145Z,10.62
2018-06-22T05:06:54.412Z,10.61
2018-06-22T05:09:23.499Z,10.69
2018-06-22T05:11:52.575Z,10.73
2018-06-22T05:14:21.669Z,10.80
2018-06-22T05:16:50.735Z,10.78
2018-06-22T05:19:19.786Z,10.83
2018-06-22T05:21:48.891Z,10.96
2018-06-22T05:24:18.027Z,10.94
2018-06-22T05:26:47.077Z,11.00
2018-06-22T05:29:16.237Z,11.06
2018-06-22T05:31:45.406Z,11.15
2018-06-22T05:34:14.497Z,11.29
2018-06-22T05:36:43.549Z,11.31
2018-06-22T05:39:12.961Z,11.34
2018-06-22T05:41:42.024Z,11.41
2018-06-22T05:44:11.102Z,11.41
2018-06-22T05:49:16.869Z,11.60
2018-06-22T05:51:50.975Z,11.75
2018-06-22T05:54:20.036Z,11.66
2018-06-22T05:57:02.067Z,11.74
2018-06-22T05:59:46.662Z,11.81
2018-06-22T06:02:30.852Z,11.75
2018-06-22T06:05:18.905Z,11.84
2018-06-22T06:07:52.348Z,11.98
2018-06-22T06:10:21.406Z,12.00
2018-06-22T06:13:07.786Z,12.09
2018-06-22T06:15:37.928Z,12.01
2018-06-22T06:20:44.818Z,12.24
2018-06-22T06:23:14.316Z,12.34
2018-06-22T06:25:47.752Z,12.44
2018-06-22T06:28:17.358Z,12.42
2018-06-22T06:30:47.361Z,12.42
2018-06-22T06:33:16.401Z,12.31
2018-06-22T06:35:50.018Z,12.27
2018-06-22T06:38:19.053Z,12.39
2018-06-22T06:40:52.655Z,12.39
2018-06-22T06:43:21.910Z,12.39
2018-06-22T06:45:50.968Z,12.52
2018-06-22T06:50:55.927Z,12.72
2018-06-22T06:53:25.012Z,12.73
2018-06-22T06:55:58.719Z,12.83
2018-06-22T06:58:27.799Z,12.75
2018-06-22T07:00:57.169Z,12.80
2018-06-22T07:03:26.227Z,12.99
2018-06-22T07:08:31.330Z,13.11
2018-06-22T07:11:00.365Z,13.24
2018-06-22T07:13:29.398Z,13.23
2018-06-22T07:15:58.972Z,13.21
2018-06-22T07:18:28.964Z,13.40
2018-06-22T07:20:58.038Z,13.39
2018-06-22T07:23:32.689Z,13.52
2018-06-22T07:28:41.611Z,13.60
2018-06-22T07:31:11.869Z,13.71
2018-06-22T07:33:40.912Z,13.56
2018-06-22T07:36:09.987Z,13.80
2018-06-22T07:38:47.180Z,14.03
2018-06-22T07:41:16.229Z,13.89
2018-06-22T07:43:45.286Z,13.90
2018-06-22T07:48:51.087Z,14.15
2018-06-22T07:51:20.173Z,14.16
2018-06-22T07:53:51.189Z,14.36
2018-06-22T07:56:22.917Z,14.32
2018-06-22T07:58:56.141Z,14.20
2018-06-22T08:01:25.785Z,14.31
2018-06-22T08:03:54.867Z,14.66
2018-06-22T08:06:25.914Z,15.14
2018-06-22T08:08:55.095Z,15.22
2018-06-22T08:11:38.489Z,15.00
2018-06-22T08:14:07.999Z,14.78
2018-06-22T08:16:46.013Z,14.66
2018-06-22T08:19:16.298Z,15.03
2018-06-22T08:21:45.365Z,14.91
2018-06-22T08:24:16.723Z,15.23
2018-06-22T08:29:23.130Z,15.65
2018-06-22T08:31:52.335Z,15.81
2018-06-22T08:36:57.428Z,15.56
2018-06-22T08:39:26.474Z,15.92
2018-06-22T08:41:55.616Z,15.88
2018-06-22T08:44:27.406Z,15.22
2018-06-22T08:47:00.072Z,16.00
2018-06-22T08:49:38.032Z,16.30
2018-06-22T08:52:09.785Z,15.57
2018-06-22T08:54:42.016Z,15.86
2018-06-22T08:59:52.969Z,16.00
2018-06-22T09:02:26.376Z,15.40
2018-06-22T09:04:58.974Z,15.71
2018-06-22T09:10:09.152Z,16.29
2018-06-22T09:12:42.279Z,16.97
2018-06-22T09:15:18.182Z,16.87
2018-06-22T09:17:51.749Z,16.55
2018-06-22T09:20:35.243Z,16.73
2018-06-22T09:23:31.086Z,16.27
2018-06-22T09:28:40.640Z,16.08
2018-06-22T09:33:52.250Z,18.14
2018-06-22T09:39:01.900Z,17.99
2018-06-22T09:41:34.709Z,18.17
2018-06-22T09:44:16.457Z,18.89
2018-06-22T09:46:49.906Z,18.55
2018-06-22T09:49:22.894Z,17.90
2018-06-22T09:51:56.041Z,17.56
2018-06-22T09:54:34.432Z,18.14
2018-06-22T09:57:07.549Z,18.90
2018-06-22T09:59:40.745Z,18.84
2018-06-22T10:04:50.003Z,18.49
2018-06-22T10:07:22.769Z,18.92
2018-06-22T10:09:55.143Z,19.73
2018-06-22T10:12:26.256Z,19.99
2018-06-22T10:14:59.327Z,21.43
2018-06-22T10:17:34.312Z,22.05
2018-06-22T10:20:27.070Z,21.85
2018-06-22T10:22:59.548Z,20.60
2018-06-22T10:25:32.050Z,20.17
2018-06-22T10:28:11.472Z,19.28
2018-06-22T10:30:46.006Z,19.12
2018-06-22T10:33:18.944Z,18.66
2018-06-22T10:35:51.355Z,20.06
2018-06-22T10:38:28.719Z,18.95
2018-06-22T10:41:00.697Z,18.28
2018-06-22T10:43:33.007Z,18.92
2018-06-22T10:46:05.912Z,20.15
2018-06-22T10:48:48.489Z,19.11
2018-06-22T10:51:21.466Z,18.05
2018-06-22T10:53:53.119Z,20.35
2018-06-22T10:56:47.965Z,20.59
2018-06-22T11:01:59.263Z,20.69
2018-06-22T11:04:40.083Z,21.25
2018-06-22T11:07:15.064Z,19.06
2018-06-22T11:09:49.023Z,18.30
2018-06-22T11:12:23.764Z,17.68
2018-06-22T11:14:55.128Z,17.67
2018-06-22T11:20:04.345Z,18.00
2018-06-22T11:22:38.801Z,20.37
2018-06-22T11:27:48.349Z,18.95
2018-06-22T11:30:29.113Z,17.98
2018-06-22T11:33:03.940Z,18.26
2018-06-22T11:35:36.338Z,19.82
2018-06-22T11:38:09.374Z,20.13
2018-06-22T11:43:24.172Z,19.72
2018-06-22T11:45:55.411Z,19.90
2018-06-22T11:51:02.799Z,19.27
2018-06-22T11:53:38.742Z,18.50
2018-06-22T11:58:50.922Z,18.06
2018-06-22T12:01:28.310Z,17.72
2018-06-22T12:03:59.130Z,16.99
2018-06-22T12:06:36.454Z,16.56
2018-06-22T12:09:10.443Z,16.64
2018-06-22T12:11:42.405Z,16.73
2018-06-22T12:14:18.994Z,17.45
2018-06-22T12:16:52.162Z,18.20
2018-06-22T12:19:24.664Z,18.50
2018-06-22T12:21:53.720Z,21.13
2018-06-22T12:24:23.727Z,22.06
2018-06-22T12:26:52.803Z,20.43
2018-06-22T12:32:23.205Z,18.54
2018-06-22T12:34:52.267Z,18.02
2018-06-22T12:37:27.114Z,17.34
2018-06-22T12:39:56.185Z,16.70
2018-06-22T12:42:27.243Z,16.99
2018-06-22T12:44:56.346Z,16.92
2018-06-22T12:47:25.372Z,17.08
2018-06-22T12:49:54.427Z,17.05
2018-06-22T12:52:23.510Z,17.68
2018-06-22T12:54:53.502Z,17.91
2018-06-22T12:57:46.134Z,18.16
2018-06-22T13:02:50.974Z,17.55
2018-06-22T13:07:56.315Z,16.90
2018-06-22T13:10:26.438Z,16.71
2018-06-22T13:12:55.877Z,16.25
2018-06-22T13:15:24.938Z,16.61
2018-06-22T13:17:54.002Z,16.83
2018-06-22T13:20:23.068Z,16.92
2018-06-22T13:22:52.173Z,16.71
2018-06-22T13:27:58.080Z,16.65
2018-06-22T13:30:27.113Z,17.08
2018-06-22T13:32:58.183Z,17.04
2018-06-22T13:35:36.160Z,17.14
2018-06-22T13:38:06.221Z,17.76
2018-06-22T13:40:39.795Z,18.34
2018-06-22T13:43:08.881Z,18.53
2018-06-22T13:45:45.220Z,18.50
2018-06-22T13:48:14.274Z,18.68
2018-06-22T13:53:23.276Z,19.66
2018-06-22T13:55:56.486Z,20.49
2018-06-22T13:58:29.554Z,21.68
2018-06-22T14:01:03.188Z,19.82
2018-06-22T14:03:41.988Z,18.52
2018-06-22T14:09:10.069Z,17.49
2018-06-22T14:11:39.185Z,17.20
2018-06-22T14:14:08.392Z,17.20
2018-06-22T14:16:59.341Z,17.55
2018-06-22T14:19:28.394Z,18.15
2018-06-22T14:22:08.250Z,18.43
2018-06-22T14:24:37.296Z,19.23
2018-06-22T14:27:10.811Z,19.49
2018-06-22T14:29:40.093Z,18.36
2018-06-22T14:32:09.173Z,18.24
2018-06-22T14:34:38.221Z,18.31
2018-06-22T14:37:09.181Z,18.01
2018-06-22T14:39:39.348Z,18.94
2018-06-22T14:42:08.854Z,20.13
2018-06-22T14:44:38.126Z,21.46
2018-06-22T14:47:09.248Z,19.97
2018-06-22T14:49:38.332Z,21.25
2018-06-22T14:52:07.518Z,21.27
2018-06-22T14:54:42.102Z,20.00
2018-06-22T15:03:09.933Z,21.64
2018-06-22T15:08:35.833Z,20.90
2018-06-22T15:11:08.885Z,20.61
2018-06-22T15:13:38.872Z,21.51
2018-06-22T15:16:07.955Z,21.94
2018-06-22T15:18:37.195Z,21.94
2018-06-22T15:21:14.459Z,23.72
2018-06-22T15:23:43.522Z,25.18
2018-06-22T15:26:27.889Z,24.50
2018-06-22T15:29:21.137Z,22.88
2018-06-22T15:31:50.196Z,23.24
2018-06-22T15:37:34.049Z,23.24
2018-06-22T15:40:08.561Z,23.58
2018-06-22T15:45:33.393Z,24.42
2018-06-22T15:56:39.913Z,23.55
2018-06-22T15:59:08.990Z,24.82
2018-06-22T16:01:38.287Z,24.41
2018-06-22T16:04:18.604Z,23.52
2018-06-22T16:06:47.655Z,22.96
2018-06-22T16:09:28.622Z,23.10
2018-06-22T16:12:01.587Z,21.25
2018-06-22T16:14:31.569Z,22.75
2018-06-22T16:28:54.614Z,20.74
2018-06-22T16:31:23.750Z,18.80
2018-06-22T16:33:52.912Z,17.88
2018-06-22T16:39:01.595Z,17.24
2018-06-22T16:41:30.829Z,17.24
2018-06-22T16:44:04.652Z,16.91
2018-06-22T16:46:34.597Z,16.96
2018-06-22T16:49:07.517Z,17.08
2018-06-22T16:51:36.589Z,16.67
2018-06-22T16:54:25.382Z,16.58
2018-06-22T16:56:54.445Z,16.43
2018-06-22T16:59:28.752Z,16.35
2018-06-22T17:02:00.858Z,16.34
2018-06-22T17:04:30.825Z,16.43
2018-06-22T17:06:59.887Z,16.20
2018-06-22T17:21:17.626Z,16.05
2018-06-22T17:23:47.254Z,16.04
2018-06-22T17:26:16.316Z,16.26
2018-06-22T17:28:46.489Z,16.23
2018-06-22T17:31:28.309Z,16.08
2018-06-22T17:36:33.122Z,15.89
2018-06-22T17:39:19.641Z,15.84
2018-06-22T17:41:48.711Z,15.82
2018-06-22T17:44:29.531Z,15.76
2018-06-22T17:46:58.589Z,15.62
2018-06-22T17:49:28.549Z,15.58
2018-06-22T17:51:57.819Z,15.68
2018-06-22T17:54:28.810Z,15.57
2018-06-22T17:59:46.232Z,15.37
2018-06-22T18:05:04.010Z,15.39
2018-06-22T18:07:33.083Z,15.15
2018-06-22T18:10:02.131Z,14.99
2018-06-22T18:12:46.168Z,14.97
2018-06-22T18:17:50.933Z,14.90
2018-06-22T18:20:20.081Z,14.81
2018-06-22T18:25:25.693Z,14.63
2018-06-22T18:27:55.705Z,14.56
2018-06-22T18:33:00.958Z,14.30
2018-06-22T18:35:30.012Z,14.34
2018-06-22T18:37:59.134Z,14.16
2018-06-22T18:40:28.182Z,14.12
2018-06-22T18:42:57.248Z,14.01
2018-06-22T18:45:26.305Z,13.91
2018-06-22T18:47:55.374Z,13.68
2018-06-22T18:50:25.478Z,13.50
2018-06-22T19:01:22.449Z,13.32
2018-06-22T19:03:52.470Z,13.18
2018-06-22T19:06:29.453Z,13.00
2018-06-22T19:09:00.486Z,12.87
2018-06-22T19:11:29.569Z,12.59
2018-06-22T19:13:58.606Z,12.54
2018-06-22T19:16:29.577Z,12.52
2018-06-22T19:19:02.625Z,12.40
2018-06-22T19:21:32.588Z,12.34
2018-06-22T19:24:01.647Z,12.45
2018-06-22T19:26:30.713Z,12.49
2018-06-22T19:28:59.798Z,12.51
2018-06-22T19:31:28.858Z,12.56
2018-06-22T19:33:57.969Z,12.49
2018-06-22T19:36:27.955Z,12.46
2018-06-22T19:38:57.989Z,12.45
2018-06-22T19:41:27.946Z,12.39
2018-06-22T19:43:56.998Z,12.37
2018-06-22T19:55:14.700Z,11.77
2018-06-22T20:00:19.529Z,11.38
2018-06-22T20:05:24.316Z,11.06
2018-06-22T20:07:53.372Z,10.81
2018-06-22T20:10:22.471Z,10.72
2018-06-22T20:15:27.221Z,10.57
2018-06-22T20:17:56.293Z,10.67
2018-06-22T20:20:25.385Z,10.47
2018-06-22T20:22:55.022Z,10.22
2018-06-22T20:25:24.129Z,10.04
2018-06-22T20:30:28.966Z,9.87
2018-06-22T20:32:58.973Z,9.99
2018-06-22T20:44:09.178Z,9.54
2018-06-22T20:46:39.197Z,9.25
2018-06-22T20:52:03.992Z,9.10
2018-06-22T20:54:34.341Z,9.02
2018-06-22T20:57:03.649Z,9.20
2018-06-22T20:59:32.698Z,9.11
2018-06-22T21:02:02.155Z,8.89
2018-06-22T21:04:31.221Z,8.86
2018-06-22T21:07:03.297Z,8.89
2018-06-22T21:09:34.333Z,8.87
2018-06-22T21:12:05.118Z,8.84
2018-06-22T21:14:34.169Z,8.90
2018-06-22T21:17:03.206Z,8.82
2018-06-22T21:22:08.029Z,8.88
2018-06-22T21:24:37.073Z,8.87
2018-06-22T21:27:06.117Z,8.91
2018-06-22T21:41:27.417Z,9.13
2018-06-22T21:43:56.575Z,9.09
2018-06-22T21:46:25.627Z,9.03
2018-06-22T21:51:30.441Z,8.99
2018-06-22T21:53:59.483Z,8.92
2018-06-22T21:56:28.518Z,8.83
2018-06-22T21:58:57.555Z,8.78
2018-06-22T22:01:26.626Z,8.71
2018-06-22T22:03:55.681Z,8.66
2018-06-22T22:06:24.733Z,8.66
2018-06-22T22:08:54.733Z,8.67
2018-06-22T22:11:23.788Z,8.63
2018-06-22T22:16:28.589Z,8.65
2018-06-22T22:18:57.640Z,8.69
2018-06-22T22:21:26.676Z,8.66
2018-06-22T22:23:55.811Z,8.56
2018-06-22T22:26:24.906Z,8.53
2018-06-22T22:28:54.056Z,8.63
2018-06-22T22:31:23.109Z,8.62
2018-06-22T22:33:52.165Z,8.62
2018-06-22T22:36:21.194Z,8.58
2018-06-22T22:41:25.996Z,8.62
2018-06-22T22:43:55.099Z,8.73
2018-06-22T22:46:24.198Z,8.63
2018-06-22T22:48:53.283Z,8.69
2018-06-22T22:51:22.312Z,8.58
2018-06-22T22:53:51.367Z,8.56
2018-06-22T22:56:20.409Z,8.51
2018-06-22T22:58:53.292Z,8.54
2018-06-22T23:01:22.349Z,8.56
2018-06-22T23:03:51.481Z,8.58
2018-06-22T23:08:58.312Z,8.63
2018-06-22T23:11:27.374Z,8.67
2018-06-22T23:16:32.167Z,8.69
2018-06-22T23:19:01.237Z,8.70
2018-06-22T23:21:33.338Z,8.57
2018-06-22T23:24:02.364Z,8.54
2018-06-22T23:26:31.478Z,8.63
2018-06-22T23:29:01.424Z,8.73
2018-06-22T23:31:30.473Z,8.75
2018-06-22T23:34:02.692Z,8.77
2018-06-22T23:36:31.744Z,8.83
2018-06-22T23:39:00.785Z,8.92
2018-06-22T23:41:30.862Z,8.88
2018-06-22T23:44:01.879Z,8.87
2018-06-22T23:46:30.924Z,9.01
2018-06-22T23:51:35.768Z,9.34
2018-06-22T23:54:05.821Z,9.50
2018-06-22T23:58:57.078Z,9.59
